Time;durP1;ratioP1;P1;durP2;ratioP2;P2;SDS_P1;SDS_P2;PMS_P1;PMS_P2;Temp;Humidity;BMP_temperature;BMP_pressure;BME280_temperature;BME280_humidity;BME280_pressure;Samples;Min_cycle;Max_cycle;Signal;HPM_P1;HPM_P2
2022/11/13 00:01:14;;;;;;;1999.90;999.90;;;;;;;7.43;100.00;99236.88;5098735;28;20602;-76
2022/11/13 00:03:39;;;;;;;1999.90;999.90;;;;;;;7.36;100.00;99251.72;5097623;28;20024;-75
2022/11/13 00:06:05;;;;;;;1999.90;999.90;;;;;;;7.30;100.00;99253.47;5100654;28;20074;-74
2022/11/13 00:08:30;;;;;;;1999.90;999.90;;;;;;;7.26;100.00;99244.16;5096133;28;21426;-75
2022/11/13 00:11:05;;;;;;;1999.90;999.90;;;;;;;7.19;100.00;99239.94;5097766;28;20011;-75
2022/11/13 00:13:31;;;;;;;1999.90;999.90;;;;;;;7.29;100.00;99243.69;5097386;28;20028;-75
2022/11/13 00:15:58;;;;;;;1999.90;999.90;;;;;;;7.25;100.00;99244.41;5094371;28;20077;-74
2022/11/13 00:18:23;;;;;;;1999.90;999.90;;;;;;;7.29;100.00;99243.69;5097369;28;20415;-75
2022/11/13 00:20:49;;;;;;;1999.90;999.90;;;;;;;7.42;100.00;99248.81;5105849;28;20085;-75
2022/11/13 00:23:14;;;;;;;1999.90;999.90;;;;;;;7.42;100.00;99253.47;5106273;28;20101;-75
2022/11/13 00:25:39;;;;;;;1999.90;999.90;;;;;;;7.51;100.00;99258.28;5100426;28;20077;-75
2022/11/13 00:28:05;;;;;;;1999.90;999.90;;;;;;;7.59;100.00;99245.31;5110503;28;20106;-75
2022/11/13 00:30:30;;;;;;;1999.90;999.90;;;;;;;7.74;100.00;99256.47;5105609;28;20027;-75
2022/11/13 00:32:55;;;;;;;1999.90;999.90;;;;;;;7.76;100.00;99248.91;5112160;28;20120;-75
2022/11/13 00:35:21;;;;;;;1999.90;999.90;;;;;;;7.84;100.00;99257.50;5105641;28;20088;-75
2022/11/13 00:37:46;;;;;;;1999.90;999.90;;;;;;;7.93;100.00;99255.19;5102654;28;20647;-76
2022/11/13 00:40:11;;;;;;;1999.90;999.90;;;;;;;7.95;100.00;99253.91;5102660;28;20032;-76
2022/11/13 00:42:36;;;;;;;1999.90;999.90;;;;;;;7.93;100.00;99250.56;5094166;28;20019;-76
2022/11/13 00:45:02;;;;;;;1999.90;999.90;;;;;;;7.93;100.00;99249.75;5100495;28;20629;-74
2022/11/13 00:47:30;;;;;;;1999.90;999.90;;;;;;;7.88;100.00;99249.66;5103512;28;20022;-76
2022/11/13 00:49:56;;;;;;;1999.90;999.90;;;;;;;7.78;100.00;99252.19;5108480;28;20038;-75
2022/11/13 00:52:21;;;;;;;1999.90;999.90;;;;;;;7.70;100.00;99244.44;5102039;28;20464;-75
2022/11/13 00:54:46;;;;;;;1999.90;999.90;;;;;;;7.75;100.00;99250.81;5103397;28;20156;-76
2022/11/13 00:57:12;;;;;;;1999.90;999.90;;;;;;;7.67;100.00;99256.66;5101162;28;20062;-75
2022/11/13 00:59:37;;;;;;;1999.90;999.90;;;;;;;7.63;100.00;99243.75;5110452;28;20414;-76
2022/11/13 01:02:02;;;;;;;1999.90;999.90;;;;;;;7.56;100.00;99243.91;5115402;28;20043;-76
2022/11/13 01:04:28;;;;;;;1999.90;999.90;;;;;;;7.49;100.00;99252.22;5107912;28;20089;-80
2022/11/13 01:06:54;;;;;;;1999.90;999.90;;;;;;;7.44;100.00;99249.41;5109928;28;20165;-77
2022/11/13 01:09:19;;;;;;;1999.90;999.90;;;;;;;7.47;100.00;99243.50;5089019;28;20038;-76
2022/11/13 01:11:45;;;;;;;1999.90;999.90;;;;;;;7.54;100.00;99246.06;5105565;28;20027;-74
2022/11/13 01:14:10;;;;;;;1999.90;999.90;;;;;;;7.44;100.00;99243.97;5111078;28;20027;-76
2022/11/13 01:16:36;;;;;;;1999.90;999.90;;;;;;;7.32;100.00;99237.75;5113686;28;20391;-76
2022/11/13 01:19:01;;;;;;;1999.90;999.90;;;;;;;7.38;100.00;99241.41;5105358;28;20054;-75
2022/11/13 01:21:27;;;;;;;1999.90;999.90;;;;;;;7.34;100.00;99235.59;5103550;28;20436;-75
2022/11/13 01:23:53;;;;;;;1999.90;999.90;;;;;;;7.27;100.00;99245.81;5103273;28;20023;-74
2022/11/13 01:26:27;;;;;;;1999.90;999.90;;;;;;;7.20;100.00;99247.03;5108464;28;20477;-75
2022/11/13 01:28:54;;;;;;;1999.90;999.90;;;;;;;7.24;100.00;99259.91;5101993;28;20093;-76
2022/11/13 01:31:22;;;;;;;1999.90;999.90;;;;;;;7.25;100.00;99260.72;5109483;28;20023;-76
2022/11/13 01:33:48;;;;;;;1999.90;999.90;;;;;;;7.18;100.00;99269.03;5099695;28;20026;-74
2022/11/13 01:36:17;;;;;;;1999.90;999.90;;;;;;;7.15;100.00;99261.34;5109750;28;20020;-76
2022/11/13 01:38:42;;;;;;;1999.90;999.90;;;;;;;7.12;100.00;99272.72;5112069;28;20031;-75
2022/11/13 01:41:15;;;;;;;1999.90;999.90;;;;;;;7.14;100.00;99264.31;5100525;28;20028;-75
2022/11/13 01:43:43;;;;;;;1999.90;999.90;;;;;;;7.04;100.00;99251.34;5103479;28;20114;-75
2022/11/13 01:46:29;;;;;;;1999.90;999.90;;;;;;;7.02;100.00;99247.22;5105565;28;20054;-75
2022/11/13 01:49:03;;;;;;;1999.90;999.90;;;;;;;7.01;100.00;99251.81;5112869;28;20024;-75
2022/11/13 01:51:36;;;;;;;1999.90;999.90;;;;;;;6.91;100.00;99251.59;5105434;28;20734;-74
2022/11/13 01:54:04;;;;;;;1999.90;999.90;;;;;;;6.86;100.00;99243.34;5104890;28;20032;-75
2022/11/13 01:56:30;;;;;;;1999.90;999.90;;;;;;;6.86;100.00;99235.19;5110883;28;20476;-76
2022/11/13 01:59:19;;;;;;;1999.90;999.90;;;;;;;6.81;100.00;99229.63;5109549;28;20598;-75
2022/11/13 02:01:44;;;;;;;1999.90;999.90;;;;;;;6.81;100.00;99226.91;5101809;28;20043;-75
2022/11/13 02:04:11;;;;;;;1999.90;999.90;;;;;;;6.70;100.00;99225.03;5098968;28;20368;-76
2022/11/13 02:06:41;;;;;;;1999.90;999.90;;;;;;;6.67;100.00;99210.00;5108910;28;20059;-75
2022/11/13 02:09:07;;;;;;;1999.90;999.90;;;;;;;6.67;100.00;99206.50;5096971;28;20081;-77
2022/11/13 02:11:32;;;;;;;1999.90;999.90;;;;;;;6.58;100.00;99203.28;5104268;28;20032;-76
2022/11/13 02:13:59;;;;;;;1999.90;999.90;;;;;;;6.54;100.00;99195.88;5106938;28;20476;-75
2022/11/13 02:16:25;;;;;;;1999.90;999.90;;;;;;;6.48;100.00;99187.59;5112552;28;20016;-75
2022/11/13 02:18:51;;;;;;;1999.90;999.90;;;;;;;6.52;100.00;99187.09;5095034;28;20031;-75
2022/11/13 02:22:09;;;;;;;1999.90;999.90;;;;;;;6.32;100.00;99185.63;5106644;28;20032;-75
2022/11/13 02:24:40;;;;;;;1999.90;999.90;;;;;;;6.37;100.00;99193.03;5066671;28;20044;-75
2022/11/13 02:27:18;;;;;;;1999.90;999.90;;;;;;;6.32;100.00;99187.50;5094439;28;20063;-75
2022/11/13 02:29:44;;;;;;;1999.90;999.90;;;;;;;6.23;100.00;99189.75;5101219;28;20075;-75
2022/11/13 02:32:09;;;;;;;1999.90;999.90;;;;;;;6.20;100.00;99186.69;5098368;28;20094;-75
2022/11/13 02:34:34;;;;;;;1999.90;999.90;;;;;;;6.18;100.00;99188.78;5107957;28;20027;-74
2022/11/13 02:37:00;;;;;;;1999.90;999.90;;;;;;;6.17;100.00;99189.88;5095389;28;20012;-75
2022/11/13 02:39:25;;;;;;;1999.90;999.90;;;;;;;6.13;100.00;99197.66;5111198;28;20032;-75
2022/11/13 02:41:50;;;;;;;1999.90;999.90;;;;;;;6.06;100.00;99201.53;5100796;28;20036;-75
2022/11/13 02:44:16;;;;;;;1999.90;999.90;;;;;;;5.97;100.00;99203.78;5105943;28;20384;-76
2022/11/13 02:46:41;;;;;;;1999.90;999.90;;;;;;;5.96;100.00;99193.16;5094883;28;20484;-75
2022/11/13 02:49:06;;;;;;;1999.90;999.90;;;;;;;5.90;100.00;99206.63;5106415;28;20499;-75
2022/11/13 02:51:32;;;;;;;1999.90;999.90;;;;;;;5.82;100.00;99193.38;5099957;28;20476;-77
2022/11/13 02:53:57;;;;;;;1999.90;999.90;;;;;;;5.85;100.00;99197.50;5099898;28;20115;-74
2022/11/13 02:56:23;;;;;;;1999.90;999.90;;;;;;;5.80;100.00;99189.22;5106867;28;20418;-75
2022/11/13 02:58:49;;;;;;;1999.90;999.90;;;;;;;5.79;100.00;99198.44;5094674;28;20036;-75
2022/11/13 03:01:14;;;;;;;1999.90;999.90;;;;;;;5.75;100.00;99198.06;5105765;28;20059;-76
2022/11/13 03:03:39;;;;;;;1999.90;999.90;;;;;;;5.85;100.00;99192.06;5082278;28;20027;-75
2022/11/13 03:06:05;;;;;;;1999.90;999.90;;;;;;;5.73;100.00;99175.75;5098188;28;20024;-75
2022/11/13 03:08:30;;;;;;;1999.90;999.90;;;;;;;5.74;100.00;99180.13;5107745;28;20523;-75
2022/11/13 03:10:56;;;;;;;1999.90;999.90;;;;;;;5.60;100.00;99189.56;5094340;28;20761;-75
2022/11/13 03:13:21;;;;;;;1999.90;999.90;;;;;;;5.57;100.00;99195.44;5104644;28;20504;-75
2022/11/13 03:15:47;;;;;;;1999.90;999.90;;;;;;;5.72;100.00;99186.84;5101601;28;21016;-74
2022/11/13 03:18:12;;;;;;;1999.90;999.90;;;;;;;5.67;100.00;99167.72;5097393;28;20031;-75
2022/11/13 03:20:40;;;;;;;1999.90;999.90;;;;;;;5.68;100.00;99177.50;5108008;28;20365;-75
2022/11/13 03:23:05;;;;;;;1999.90;999.90;;;;;;;5.55;100.00;99185.84;5095512;28;20042;-75
2022/11/13 03:25:32;;;;;;;1999.90;999.90;;;;;;;5.56;100.00;99184.81;5102823;28;20695;-75
2022/11/13 03:27:57;;;;;;;1999.90;999.90;;;;;;;5.50;100.00;99199.31;5102704;28;20027;-76
2022/11/13 03:30:22;;;;;;;1999.90;999.90;;;;;;;5.37;100.00;99189.47;5095579;28;20426;-75
2022/11/13 03:32:52;;;;;;;1999.90;999.90;;;;;;;5.36;100.00;99194.06;5089252;28;20016;-75
2022/11/13 03:35:17;;;;;;;1999.90;999.90;;;;;;;5.40;100.00;99184.41;5097010;28;20024;-75
2022/11/13 03:37:43;;;;;;;1999.90;999.90;;;;;;;5.43;100.00;99171.44;5100992;28;20621;-74
2022/11/13 03:40:08;;;;;;;1999.90;999.90;;;;;;;5.42;100.00;99159.75;5103814;28;20055;-74
2022/11/13 03:42:34;;;;;;;1999.90;999.90;;;;;;;5.40;100.00;99157.28;5094211;28;20071;-75
2022/11/13 03:44:59;;;;;;;1999.90;999.90;;;;;;;5.34;100.00;99174.50;5108528;28;20017;-76
2022/11/13 03:47:24;;;;;;;1999.90;999.90;;;;;;;5.37;100.00;99173.19;5102694;28;20027;-75
2022/11/13 03:49:50;;;;;;;1999.90;999.90;;;;;;;5.19;100.00;99165.13;5101369;28;20377;-75
2022/11/13 03:52:15;;;;;;;1999.90;999.90;;;;;;;5.23;100.00;99160.91;5105206;28;20480;-75
2022/11/13 03:54:40;;;;;;;1999.90;999.90;;;;;;;5.19;100.00;99148.84;5105404;28;20499;-74
2022/11/13 03:57:05;;;;;;;1999.90;999.90;;;;;;;5.28;100.00;99151.00;5111035;28;20012;-74
2022/11/13 03:59:31;;;;;;;1999.90;999.90;;;;;;;5.20;100.00;99154.03;5102403;28;20035;-75
2022/11/13 04:01:56;;;;;;;1999.90;999.90;;;;;;;5.20;100.00;99151.31;5104310;28;20020;-75
2022/11/13 04:04:21;;;;;;;1999.90;999.90;;;;;;;5.12;100.00;99150.84;5099797;28;20066;-75
2022/11/13 04:06:47;;;;;;;1999.90;999.90;;;;;;;5.09;100.00;99167.56;5112424;28;20130;-76
2022/11/13 04:09:12;;;;;;;1999.90;999.90;;;;;;;5.08;100.00;99146.91;5101638;28;20090;-76
2022/11/13 04:11:37;;;;;;;1999.90;999.90;;;;;;;5.03;100.00;99150.34;5107115;28;20032;-75
2022/11/13 04:14:04;;;;;;;1999.90;999.90;;;;;;;4.98;100.00;99162.94;5108350;28;20026;-76
2022/11/13 04:16:30;;;;;;;1999.90;999.90;;;;;;;5.02;100.00;99143.25;5098393;28;20024;-75
2022/11/13 04:18:55;;;;;;;1999.90;999.90;;;;;;;5.05;100.00;99148.22;5111046;28;20396;-75
2022/11/13 04:21:20;;;;;;;1999.90;999.90;;;;;;;5.02;100.00;99153.25;5101474;28;20102;-74
2022/11/13 04:23:46;;;;;;;1999.90;999.90;;;;;;;5.00;100.00;99150.81;5104059;28;20036;-75
2022/11/13 04:26:11;;;;;;;1999.90;999.90;;;;;;;4.93;100.00;99157.34;5108034;28;20471;-75
2022/11/13 04:28:37;;;;;;;1999.90;999.90;;;;;;;4.86;100.00;99158.28;5097589;28;20028;-75
2022/11/13 04:31:02;;;;;;;1999.90;999.90;;;;;;;4.80;100.00;99152.94;5110384;28;20050;-75
2022/11/13 04:33:28;;;;;;;1999.90;999.90;;;;;;;4.75;100.00;99147.38;5101802;28;20027;-75
2022/11/13 04:35:53;;;;;;;1999.90;999.90;;;;;;;4.76;100.00;99151.75;5114510;28;20039;-74
2022/11/13 04:38:18;;;;;;;1999.90;999.90;;;;;;;4.83;100.00;99152.47;5096064;28;20059;-75
2022/11/13 04:40:44;;;;;;;1999.90;999.90;;;;;;;4.84;100.00;99160.41;5097401;28;20028;-75
2022/11/13 04:43:09;;;;;;;1999.90;999.90;;;;;;;4.74;100.00;99151.97;5109252;28;20081;-74
2022/11/13 04:45:35;;;;;;;1999.90;999.90;;;;;;;4.69;100.00;99148.31;5103029;28;20078;-75
2022/11/13 04:48:00;;;;;;;1999.90;999.90;;;;;;;4.79;100.00;99159.44;5102007;28;20047;-75
2022/11/13 04:50:26;;;;;;;1999.90;999.90;;;;;;;4.69;100.00;99170.81;5110048;28;20019;-74
2022/11/13 04:52:51;;;;;;;1999.90;999.90;;;;;;;4.68;100.00;99158.31;5097117;28;20537;-75
2022/11/13 04:55:16;;;;;;;1999.90;999.90;;;;;;;4.69;100.00;99170.81;5107808;28;20031;-75
2022/11/13 04:57:42;;;;;;;1999.90;999.90;;;;;;;4.61;100.00;99173.81;5103456;28;20027;-76
2022/11/13 05:00:08;;;;;;;1999.90;999.90;;;;;;;4.59;100.00;99169.69;5113250;28;20144;-75
2022/11/13 05:02:35;;;;;;;1999.90;999.90;;;;;;;4.62;100.00;99153.81;5114065;28;20028;-74
2022/11/13 05:05:00;;;;;;;1999.90;999.90;;;;;;;4.48;100.00;99151.50;5114225;28;20020;-75
2022/11/13 05:07:26;;;;;;;1999.90;999.90;;;;;;;4.51;100.00;99151.84;5113841;28;20561;-75
2022/11/13 05:09:52;;;;;;;1999.90;999.90;;;;;;;4.62;100.00;99170.06;5113986;28;20037;-74
2022/11/13 05:12:17;;;;;;;1999.90;999.90;;;;;;;4.55;100.00;99173.88;5113529;28;20022;-75
2022/11/13 05:14:43;;;;;;;1999.90;999.90;;;;;;;4.58;100.00;99185.09;5102196;28;20032;-75
2022/11/13 05:17:10;;;;;;;1999.90;999.90;;;;;;;4.52;100.00;99186.00;5108118;28;20050;-75
2022/11/13 05:19:35;;;;;;;1999.90;999.90;;;;;;;4.50;100.00;99177.28;5096772;28;20027;-75
2022/11/13 05:22:01;;;;;;;1999.90;999.90;;;;;;;4.47;100.00;99176.91;5113880;28;20024;-75
2022/11/13 05:24:27;;;;;;;1999.90;999.90;;;;;;;4.51;100.00;99188.97;5106552;28;20551;-75
2022/11/13 05:26:53;;;;;;;1999.90;999.90;;;;;;;4.59;100.00;99199.47;5106926;28;20366;-75
2022/11/13 05:29:19;;;;;;;1999.90;999.90;;;;;;;4.65;100.00;99196.69;5107307;28;20373;-75
2022/11/13 05:31:45;;;;;;;1999.90;999.90;;;;;;;4.68;100.00;99187.28;5113564;28;20072;-75
2022/11/13 05:34:11;;;;;;;1999.90;999.90;;;;;;;4.65;100.00;99190.44;5113451;28;20016;-75
2022/11/13 05:36:36;;;;;;;1999.90;999.90;;;;;;;4.56;100.00;99195.34;5113042;28;20067;-75
2022/11/13 05:39:02;;;;;;;1999.90;999.90;;;;;;;4.53;100.00;99197.69;5095153;28;20066;-76
2022/11/13 05:41:28;;;;;;;1999.90;999.90;;;;;;;4.55;100.00;99193.69;5113683;28;20023;-75
2022/11/13 05:43:53;;;;;;;1999.90;999.90;;;;;;;4.64;100.00;99188.78;5113511;28;20028;-75
2022/11/13 05:46:21;;;;;;;1999.90;999.90;;;;;;;4.63;100.00;99179.84;5114279;28;20567;-74
2022/11/13 05:48:51;;;;;;;1999.90;999.90;;;;;;;4.73;100.00;99187.44;5115909;28;20110;-82
2022/11/13 05:51:20;;;;;;;1999.90;999.90;;;;;;;4.47;100.00;99194.00;5112139;28;20026;-76
2022/11/13 05:53:45;;;;;;;1999.90;999.90;;;;;;;4.36;100.00;99193.91;5100870;28;20045;-77
2022/11/13 05:56:14;;;;;;;1999.90;999.90;;;;;;;4.49;100.00;99188.34;5102651;28;20031;-75
2022/11/13 05:58:40;;;;;;;1999.90;999.90;;;;;;;4.54;100.00;99183.09;5115476;28;20053;-75
2022/11/13 06:01:35;;;;;;;1999.90;999.90;;;;;;;4.64;100.00;99188.78;5112649;28;20038;-75
2022/11/13 06:04:02;;;;;;;1999.90;999.90;;;;;;;4.66;100.00;99192.13;5096214;28;20044;-75
2022/11/13 06:06:29;;;;;;;1999.90;999.90;;;;;;;4.70;100.00;99198.72;5092031;28;20040;-75
2022/11/13 06:08:56;;;;;;;1999.90;999.90;;;;;;;4.65;100.00;99204.00;5101222;28;20039;-75
2022/11/13 06:11:24;;;;;;;1999.90;999.90;;;;;;;4.69;100.00;99202.50;5112433;28;20030;-76
2022/11/13 06:13:50;;;;;;;1999.90;999.90;;;;;;;4.88;100.00;99190.59;5112068;28;20031;-76
2022/11/13 06:16:18;;;;;;;1999.90;999.90;;;;;;;4.98;100.00;99180.00;5112278;28;20414;-76
2022/11/13 06:18:45;;;;;;;1999.90;999.90;;;;;;;4.96;100.00;99182.13;5112208;28;20043;-75
2022/11/13 06:21:20;;;;;;;1999.90;999.90;;;;;;;5.10;100.00;99189.03;5094353;28;20108;-76
2022/11/13 06:23:49;;;;;;;1999.90;999.90;;;;;;;5.11;100.00;99196.09;5111139;28;20102;-75
2022/11/13 06:26:20;;;;;;;1999.90;999.90;;;;;;;5.26;100.00;99191.09;5112046;28;20471;-75
2022/11/13 06:28:46;;;;;;;1999.90;999.90;;;;;;;5.37;100.00;99195.72;5112093;28;20035;-76
2022/11/13 06:31:14;;;;;;;1999.90;999.90;;;;;;;5.52;100.00;99194.47;5093820;28;20713;-75
2022/11/13 06:33:40;;;;;;;1999.90;999.90;;;;;;;5.50;100.00;99189.28;5112389;28;20028;-74
2022/11/13 06:36:12;;;;;;;1999.90;999.90;;;;;;;6.03;100.00;99194.72;5112094;28;20072;-75
2022/11/13 06:38:39;;;;;;;1999.90;999.90;;;;;;;6.66;100.00;99202.09;5111896;28;20027;-76
2022/11/13 06:41:05;;;;;;;1999.90;999.90;;;;;;;7.33;100.00;99195.84;5093740;28;20059;-76
2022/11/13 06:43:31;;;;;;;1999.90;999.90;;;;;;;7.90;100.00;99182.13;5112765;28;20023;-75
2022/11/13 06:45:57;;;;;;;1999.90;999.90;;;;;;;8.85;100.00;99195.56;5098953;28;20043;-75
2022/11/13 06:48:23;;;;;;;1999.90;999.90;;;;;;;9.50;100.00;99190.03;5092992;28;20550;-75
2022/11/13 06:50:49;;;;;;;1999.90;999.90;;;;;;;9.73;100.00;99202.53;5085206;28;20052;-77
2022/11/13 06:53:15;;;;;;;1999.90;999.90;;;;;;;10.01;100.00;99204.97;5113277;28;20023;-76
2022/11/13 06:55:48;;;;;;;1999.90;999.90;;;;;;;10.42;100.00;99208.88;5113098;28;20143;-76
2022/11/13 06:58:15;;;;;;;1999.90;999.90;;;;;;;10.32;100.00;99220.56;5111664;28;20032;-76
2022/11/13 07:00:41;;;;;;;1999.90;999.90;;;;;;;11.04;100.00;99219.91;5112020;28;20027;-76
2022/11/13 07:03:16;;;;;;;1999.90;999.90;;;;;;;11.11;100.00;99223.22;5111610;28;20078;-77
2022/11/13 07:05:41;;;;;;;1999.90;999.90;;;;;;;11.28;100.00;99212.88;5114827;28;20019;-85
2022/11/13 07:08:07;;;;;;;1999.90;999.90;;;;;;;11.80;100.00;99216.34;5117814;28;20056;-85
2022/11/13 07:10:32;;;;;;;1999.90;999.90;;;;;;;12.20;100.00;99211.97;5118101;28;20035;-78
2022/11/13 07:12:59;;;;;;;1999.90;999.90;;;;;;;12.39;100.00;99215.78;5120007;28;20032;-87
2022/11/13 07:15:24;;;;;;;1999.90;999.90;;;;;;;12.88;100.00;99205.78;5126104;28;20027;-84
2022/11/13 07:17:49;;;;;;;1999.90;999.90;;;;;;;13.75;100.00;99207.03;5100747;28;20032;-84
2022/11/13 07:20:15;;;;;;;1999.90;999.90;;;;;;;14.19;100.00;99192.44;5121994;28;20115;-85
2022/11/13 07:22:40;;;;;;;1999.90;999.90;;;;;;;14.68;100.00;99197.78;5122528;28;20028;-86
2022/11/13 07:25:06;;;;;;;1999.90;999.90;;;;;;;15.21;100.00;99204.06;5108636;28;20020;-84
2022/11/13 07:27:31;;;;;;;1999.90;999.90;;;;;;;14.97;100.00;99210.38;5097464;28;20019;-82
2022/11/13 07:29:57;;;;;;;1999.90;999.90;;;;;;;14.28;100.00;99215.47;5089688;28;20036;-82
2022/11/13 07:32:22;;;;;;;1999.90;999.90;;;;;;;12.99;100.00;99217.59;5112193;28;20061;-85
2022/11/13 07:34:47;;;;;;;1999.90;999.90;;;;;;;11.73;100.00;99224.00;5098460;28;20110;-86
2022/11/13 07:37:13;;;;;;;1999.90;999.90;;;;;;;10.88;100.00;99207.22;5092636;28;20077;-76
2022/11/13 07:39:38;;;;;;;1999.90;999.90;;;;;;;10.43;100.00;99197.66;5100241;28;20042;-76
2022/11/13 07:42:04;;;;;;;1999.90;999.90;;;;;;;10.26;100.00;99201.66;5110992;28;20497;-77
2022/11/13 07:44:29;;;;;;;1999.90;999.90;;;;;;;9.94;100.00;99202.47;5110605;28;20027;-77
2022/11/13 07:46:54;;;;;;;1999.90;999.90;;;;;;;9.73;100.00;99210.75;5110909;28;20027;-75
2022/11/13 07:49:19;;;;;;;1999.90;999.90;;;;;;;9.37;100.00;99213.09;5110836;28;20028;-75
2022/11/13 07:51:45;;;;;;;1999.90;999.90;;;;;;;9.00;100.00;99214.84;5111243;28;20043;-77
2022/11/13 07:54:10;;;;;;;1999.90;999.90;;;;;;;8.99;100.00;99215.94;5110794;28;20028;-76
2022/11/13 07:56:35;;;;;;;1999.90;999.90;;;;;;;8.98;100.00;99214.28;5101751;28;20024;-74
2022/11/13 07:59:01;;;;;;;1999.90;999.90;;;;;;;9.08;100.00;99207.03;5098728;28;20055;-75
2022/11/13 08:01:26;;;;;;;1999.90;999.90;;;;;;;9.10;100.00;99206.78;5101643;28;20028;-77
2022/11/13 08:03:51;;;;;;;1999.90;999.90;;;;;;;9.07;100.00;99205.41;5101376;28;20028;-80
2022/11/13 08:06:17;;;;;;;1999.90;999.90;;;;;;;9.12;100.00;99197.25;5107395;28;20523;-77
2022/11/13 08:08:42;;;;;;;1999.90;999.90;;;;;;;9.03;100.00;99192.50;5082455;28;20016;-75
2022/11/13 08:11:08;;;;;;;1999.90;999.90;;;;;;;9.08;100.00;99187.13;5100936;28;20107;-74
2022/11/13 08:13:35;;;;;;;1999.90;999.90;;;;;;;9.25;100.00;99187.84;5101272;28;20090;-76
2022/11/13 08:16:02;;;;;;;1999.90;999.90;;;;;;;9.24;100.00;99185.41;5100732;28;20124;-76
2022/11/13 08:18:28;;;;;;;1999.90;999.90;;;;;;;9.25;100.00;99198.78;5101005;28;20022;-76
2022/11/13 08:20:54;;;;;;;1999.90;999.90;;;;;;;9.13;100.00;99206.28;5105807;28;20039;-75
2022/11/13 08:23:19;;;;;;;1999.90;999.90;;;;;;;9.27;100.00;99215.72;5110575;28;20035;-76
2022/11/13 08:25:45;;;;;;;1999.90;999.90;;;;;;;9.40;100.00;99223.50;5101590;28;20032;-76
2022/11/13 08:28:11;;;;;;;1999.90;999.90;;;;;;;9.72;100.00;99222.75;5098958;28;20030;-75
2022/11/13 08:30:36;;;;;;;1999.90;999.90;;;;;;;10.43;100.00;99216.81;5101710;28;20074;-77
2022/11/13 08:33:02;;;;;;;1999.90;999.90;;;;;;;10.39;100.00;99221.19;5100060;28;20065;-76
2022/11/13 08:35:28;;;;;;;1999.90;999.90;;;;;;;10.37;100.00;99215.13;5082803;28;20019;-76
2022/11/13 08:37:54;;;;;;;1999.90;999.90;;;;;;;10.57;100.00;99223.47;5100663;28;20027;-75
2022/11/13 08:40:19;;;;;;;1999.90;999.90;;;;;;;10.82;100.00;99216.50;5099240;28;20047;-75
2022/11/13 08:42:45;;;;;;;1999.90;999.90;;;;;;;10.89;100.00;99214.34;5099610;28;20022;-75
2022/11/13 08:45:11;;;;;;;1999.90;999.90;;;;;;;12.24;100.00;99213.06;5102332;28;20032;-76
2022/11/13 08:47:36;;;;;;;1999.90;999.90;;;;;;;13.26;100.00;99212.56;5110864;28;20058;-82
2022/11/13 08:50:02;;;;;;;1999.90;999.90;;;;;;;14.26;100.00;99213.00;5101570;28;20422;-83
2022/11/13 08:52:28;;;;;;;1999.90;999.90;;;;;;;15.21;100.00;99215.91;5105412;28;20027;-87
2022/11/13 08:54:53;;;;;;;1999.90;999.90;;;;;;;16.32;99.66;99224.53;5106582;28;20056;-83
2022/11/13 08:57:19;;;;;;;1999.90;999.90;;;;;;;16.96;93.82;99218.97;5108932;28;20103;-86
2022/11/13 08:59:44;;;;;;;1999.90;999.90;;;;;;;17.39;84.08;99224.19;5103088;28;20028;-76
2022/11/13 09:02:14;;;;;;;1999.90;999.90;;;;;;;17.20;81.81;99212.44;5093724;28;20025;-76
2022/11/13 09:04:40;;;;;;;1999.90;999.90;;;;;;;17.70;78.92;99218.88;5093825;28;20401;-76
2022/11/13 09:07:06;;;;;;;1999.90;999.90;;;;;;;17.72;76.60;99220.19;5093823;28;20139;-76
2022/11/13 09:09:33;;;;;;;1999.90;999.90;;;;;;;17.57;76.84;99224.09;5093870;28;20124;-76
2022/11/13 09:11:59;;;;;;;1999.90;999.90;;;;;;;16.74;77.41;99232.66;5096548;28;20024;-77
2022/11/13 09:14:24;;;;;;;1999.90;999.90;;;;;;;15.90;78.07;99218.03;5093941;28;20036;-75
2022/11/13 09:16:50;;;;;;;1999.90;999.90;;;;;;;17.03;72.00;99213.88;5097096;28;20036;-76
2022/11/13 09:19:15;;;;;;;1999.90;999.90;;;;;;;17.97;65.68;99216.84;5105334;28;20052;-76
2022/11/13 09:21:41;;;;;;;1999.90;999.90;;;;;;;17.61;67.46;99208.53;5103019;28;20024;-75
2022/11/13 09:24:06;;;;;;;1999.90;999.90;;;;;;;18.15;64.10;99204.78;5104577;28;20062;-76
2022/11/13 09:26:33;;;;;;;1999.90;999.90;;;;;;;18.18;63.32;99198.59;5105062;28;20019;-76
2022/11/13 09:28:59;;;;;;;1999.90;999.90;;;;;;;16.59;69.47;99202.53;5103691;28;20024;-76
2022/11/13 09:31:24;;;;;;;1999.90;999.90;;;;;;;17.71;66.87;99207.47;5102878;28;20028;-76
2022/11/13 09:33:50;;;;;;;1999.90;999.90;;;;;;;17.34;67.64;99208.53;5104687;28;20018;-76
2022/11/13 09:36:16;;;;;;;1999.90;999.90;;;;;;;18.97;60.65;99218.19;5107072;28;20088;-79
2022/11/13 09:38:41;;;;;;;1999.90;999.90;;;;;;;18.73;60.39;99225.25;5111686;28;20020;-75
2022/11/13 09:41:13;;;;;;;1999.90;999.90;;;;;;;17.41;64.87;99213.66;5108292;28;20047;-76
2022/11/13 09:44:14;;;;;;;1999.90;999.90;;;;;;;17.76;62.93;99215.66;5108578;28;20023;-76
2022/11/13 09:47:02;;;;;;;1999.90;999.90;;;;;;;17.52;64.84;99215.88;5058672;28;20097;-75
2022/11/13 09:49:31;;;;;;;1999.90;999.90;;;;;;;14.68;73.76;99201.34;5098980;28;20043;-76
2022/11/13 09:52:04;;;;;;;1999.90;999.90;;;;;;;14.81;75.32;99195.16;5088589;28;20024;-75
2022/11/13 09:54:29;;;;;;;1999.90;999.90;;;;;;;14.69;77.76;99189.19;5106960;28;20156;-76
2022/11/13 09:57:00;;;;;;;1999.90;999.90;;;;;;;14.18;80.38;99179.78;5108923;28;20046;-79
2022/11/13 09:59:49;;;;;;;1999.90;999.90;;;;;;;13.78;82.23;99167.19;5108038;28;20039;-74
2022/11/13 10:02:29;;;;;;;1999.90;999.90;;;;;;;14.41;80.53;99170.75;5116189;28;20066;-83
2022/11/13 10:05:27;;;;;;;1999.90;999.90;;;;;;;14.98;78.36;99172.63;5100452;27;20029;-83
2022/11/13 10:08:10;;;;;;;1999.90;999.90;;;;;;;16.18;70.68;99168.44;5099800;28;20478;-74
2022/11/13 10:10:36;;;;;;;1999.90;999.90;;;;;;;16.49;69.37;99152.97;5107079;28;20464;-74
2022/11/13 10:13:09;;;;;;;1999.90;999.90;;;;;;;17.60;65.21;99165.38;5108919;28;20058;-77
2022/11/13 10:15:35;;;;;;;1999.90;999.90;;;;;;;17.81;62.76;99168.50;5109054;28;20016;-74
2022/11/13 10:18:09;;;;;;;1999.90;999.90;;;;;;;17.32;65.59;99171.25;5099753;28;20503;-76
2022/11/13 10:20:40;;;;;;;1999.90;999.90;;;;;;;15.51;67.77;99165.06;5105343;28;20028;-73
2022/11/13 10:23:18;;;;;;;1999.90;999.90;;;;;;;15.09;74.71;99157.63;5097840;28;20118;-74
2022/11/13 10:25:44;;;;;;;1999.90;999.90;;;;;;;16.18;66.69;99143.59;5103257;28;20024;-76
2022/11/13 10:28:22;;;;;;;1999.90;999.90;;;;;;;16.00;67.02;99137.81;5094488;28;20446;-78
2022/11/13 10:30:48;;;;;;;1999.90;999.90;;;;;;;14.99;71.13;99125.50;5093130;28;20423;-77
2022/11/13 10:33:21;;;;;;;1999.90;999.90;;;;;;;15.51;69.23;99121.75;5106238;28;20030;-78
2022/11/13 10:35:51;;;;;;;1999.90;999.90;;;;;;;16.35;65.86;99122.56;5098666;28;20027;-75
2022/11/13 10:38:25;;;;;;;1999.90;999.90;;;;;;;16.24;65.49;99109.25;5102123;28;20038;-75
2022/11/13 10:40:51;;;;;;;1999.90;999.90;;;;;;;15.68;67.99;99104.69;5099420;28;20511;-78
2022/11/13 10:43:22;;;;;;;1999.90;999.90;;;;;;;15.44;69.65;99103.94;5103276;28;20034;-75
2022/11/13 10:46:00;;;;;;;1999.90;999.90;;;;;;;15.36;69.64;99093.56;5102719;28;20030;-75
2022/11/13 10:48:34;;;;;;;1999.90;999.90;;;;;;;15.30;70.98;99086.50;5097545;28;20113;-74
2022/11/13 10:51:24;;;;;;;1999.90;999.90;;;;;;;15.69;70.64;99088.97;5100677;28;20028;-75
2022/11/13 10:53:50;;;;;;;1999.90;999.90;;;;;;;15.75;68.24;99083.06;5099113;28;20016;-76